sensor_id;sensor_type;location;lat;lon;timestamp;temperature;humidity
57709;SHT35;42558;52.388;13.390;2023-02-10T00:01:51;-0.37;75.50
57709;SHT35;42558;52.388;13.390;2023-02-10T00:04:21;-0.38;75.80
57709;SHT35;42558;52.388;13.390;2023-02-10T00:06:50;-0.39;75.99
57709;SHT35;42558;52.388;13.390;2023-02-10T00:09:20;-0.35;76.08
57709;SHT35;42558;52.388;13.390;2023-02-10T00:11:50;-0.31;76.38
57709;SHT35;42558;52.388;13.390;2023-02-10T00:14:26;-0.31;76.47
57709;SHT35;42558;52.388;13.390;2023-02-10T00:16:57;-0.29;76.65
57709;SHT35;42558;52.388;13.390;2023-02-10T00:19:28;-0.30;76.57
57709;SHT35;42558;52.388;13.390;2023-02-10T00:21:59;-0.30;76.40
57709;SHT35;42558;52.388;13.390;2023-02-10T00:24:31;-0.26;76.30
57709;SHT35;42558;52.388;13.390;2023-02-10T00:27:01;-0.24;76.36
57709;SHT35;42558;52.388;13.390;2023-02-10T00:29:31;-0.23;76.30
57709;SHT35;42558;52.388;13.390;2023-02-10T00:32:01;-0.19;76.42
57709;SHT35;42558;52.388;13.390;2023-02-10T00:34:31;-0.17;76.41
57709;SHT35;42558;52.388;13.390;2023-02-10T00:37:01;-0.13;76.34
57709;SHT35;42558;52.388;13.390;2023-02-10T00:39:31;-0.12;76.15
57709;SHT35;42558;52.388;13.390;2023-02-10T00:42:01;-0.11;76.12
57709;SHT35;42558;52.388;13.390;2023-02-10T00:44:31;-0.10;76.38
57709;SHT35;42558;52.388;13.390;2023-02-10T00:47:00;-0.09;76.34
57709;SHT35;42558;52.388;13.390;2023-02-10T00:49:30;-0.07;76.30
57709;SHT35;42558;52.388;13.390;2023-02-10T00:52:00;-0.03;76.27
57709;SHT35;42558;52.388;13.390;2023-02-10T00:54:30;-0.01;76.17
57709;SHT35;42558;52.388;13.390;2023-02-10T00:57:00;0.00;76.23
57709;SHT35;42558;52.388;13.390;2023-02-10T00:59:30;0.02;76.19
57709;SHT35;42558;52.388;13.390;2023-02-10T01:02:00;0.04;76.22
57709;SHT35;42558;52.388;13.390;2023-02-10T01:04:30;0.06;76.31
57709;SHT35;42558;52.388;13.390;2023-02-10T01:07:00;0.08;76.37
57709;SHT35;42558;52.388;13.390;2023-02-10T01:09:30;0.10;76.27
57709;SHT35;42558;52.388;13.390;2023-02-10T01:12:00;0.09;76.39
57709;SHT35;42558;52.388;13.390;2023-02-10T01:14:30;0.10;76.46
57709;SHT35;42558;52.388;13.390;2023-02-10T01:17:01;0.13;76.56
57709;SHT35;42558;52.388;13.390;2023-02-10T01:19:31;0.15;76.42
57709;SHT35;42558;52.388;13.390;2023-02-10T01:22:01;0.17;76.32
57709;SHT35;42558;52.388;13.390;2023-02-10T01:24:31;0.23;76.28
57709;SHT35;42558;52.388;13.390;2023-02-10T01:27:01;0.28;76.31
57709;SHT35;42558;52.388;13.390;2023-02-10T01:29:31;0.31;76.07
57709;SHT35;42558;52.388;13.390;2023-02-10T01:32:01;0.29;76.22
57709;SHT35;42558;52.388;13.390;2023-02-10T01:34:29;0.25;76.53
57709;SHT35;42558;52.388;13.390;2023-02-10T01:36:58;0.17;76.59
57709;SHT35;42558;52.388;13.390;2023-02-10T01:39:26;0.13;76.67
57709;SHT35;42558;52.388;13.390;2023-02-10T01:41:55;-0.00;76.56
57709;SHT35;42558;52.388;13.390;2023-02-10T01:46:55;-0.25;77.58
57709;SHT35;42558;52.388;13.390;2023-02-10T01:49:24;-0.33;77.98
57709;SHT35;42558;52.388;13.390;2023-02-10T01:52:00;-0.39;78.04
57709;SHT35;42558;52.388;13.390;2023-02-10T01:54:35;-0.47;78.13
57709;SHT35;42558;52.388;13.390;2023-02-10T01:57:16;-0.50;78.53
57709;SHT35;42558;52.388;13.390;2023-02-10T01:59:47;-0.54;78.51
57709;SHT35;42558;52.388;13.390;2023-02-10T02:02:18;-0.61;78.76
57709;SHT35;42558;52.388;13.390;2023-02-10T02:07:22;-0.73;79.44
57709;SHT35;42558;52.388;13.390;2023-02-10T02:09:56;-0.76;79.66
57709;SHT35;42558;52.388;13.390;2023-02-10T02:24:41;-1.02;80.19
57709;SHT35;42558;52.388;13.390;2023-02-10T02:27:41;-1.13;80.22
57709;SHT35;42558;52.388;13.390;2023-02-10T02:36:11;-1.32;80.56
57709;SHT35;42558;52.388;13.390;2023-02-10T02:38:47;-1.41;80.72
57709;SHT35;42558;52.388;13.390;2023-02-10T02:41:23;-1.46;81.01
57709;SHT35;42558;52.388;13.390;2023-02-10T02:43:53;-1.53;81.04
57709;SHT35;42558;52.388;13.390;2023-02-10T02:53:09;-1.80;81.67
57709;SHT35;42558;52.388;13.390;2023-02-10T03:02:11;-1.96;82.20
57709;SHT35;42558;52.388;13.390;2023-02-10T03:04:44;-2.06;82.25
57709;SHT35;42558;52.388;13.390;2023-02-10T03:07:15;-2.12;82.68
57709;SHT35;42558;52.388;13.390;2023-02-10T03:09:45;-2.16;82.72
57709;SHT35;42558;52.388;13.390;2023-02-10T03:12:15;-2.21;82.80
57709;SHT35;42558;52.388;13.390;2023-02-10T03:14:45;-2.29;82.78
57709;SHT35;42558;52.388;13.390;2023-02-10T03:17:15;-2.32;83.01
57709;SHT35;42558;52.388;13.390;2023-02-10T03:19:45;-2.33;83.19
57709;SHT35;42558;52.388;13.390;2023-02-10T03:22:15;-2.33;83.30
57709;SHT35;42558;52.388;13.390;2023-02-10T03:24:45;-2.37;83.26
57709;SHT35;42558;52.388;13.390;2023-02-10T03:27:15;-2.44;83.31
57709;SHT35;42558;52.388;13.390;2023-02-10T03:29:44;-2.46;83.52
57709;SHT35;42558;52.388;13.390;2023-02-10T03:32:18;-2.50;83.63
57709;SHT35;42558;52.388;13.390;2023-02-10T03:34:49;-2.53;83.81
57709;SHT35;42558;52.388;13.390;2023-02-10T03:37:19;-2.53;83.91
57709;SHT35;42558;52.388;13.390;2023-02-10T03:39:50;-2.54;84.03
57709;SHT35;42558;52.388;13.390;2023-02-10T03:42:19;-2.55;84.10
57709;SHT35;42558;52.388;13.390;2023-02-10T03:44:49;-2.60;84.11
57709;SHT35;42558;52.388;13.390;2023-02-10T03:47:19;-2.65;84.19
57709;SHT35;42558;52.388;13.390;2023-02-10T03:49:49;-2.68;84.35
57709;SHT35;42558;52.388;13.390;2023-02-10T03:52:19;-2.70;84.48
57709;SHT35;42558;52.388;13.390;2023-02-10T03:54:49;-2.71;84.63
57709;SHT35;42558;52.388;13.390;2023-02-10T03:57:18;-2.76;84.60
57709;SHT35;42558;52.388;13.390;2023-02-10T03:59:48;-2.73;84.72
57709;SHT35;42558;52.388;13.390;2023-02-10T04:02:18;-2.68;85.23
57709;SHT35;42558;52.388;13.390;2023-02-10T04:04:48;-2.55;85.72
57709;SHT35;42558;52.388;13.390;2023-02-10T04:07:18;-2.52;85.54
57709;SHT35;42558;52.388;13.390;2023-02-10T04:09:48;-2.47;85.62
57709;SHT35;42558;52.388;13.390;2023-02-10T04:12:18;-2.41;85.73
57709;SHT35;42558;52.388;13.390;2023-02-10T04:14:48;-2.29;86.03
57709;SHT35;42558;52.388;13.390;2023-02-10T04:17:18;-2.15;86.29
57709;SHT35;42558;52.388;13.390;2023-02-10T04:19:47;-2.02;86.44
57709;SHT35;42558;52.388;13.390;2023-02-10T04:22:17;-1.78;86.95
57709;SHT35;42558;52.388;13.390;2023-02-10T04:24:47;-1.68;86.74
57709;SHT35;42558;52.388;13.390;2023-02-10T04:27:17;-1.32;87.11
57709;SHT35;42558;52.388;13.390;2023-02-10T04:29:47;-1.18;86.50
57709;SHT35;42558;52.388;13.390;2023-02-10T04:32:17;-1.09;86.16
57709;SHT35;42558;52.388;13.390;2023-02-10T04:34:47;-0.95;85.89
57709;SHT35;42558;52.388;13.390;2023-02-10T04:37:17;-0.95;85.64
57709;SHT35;42558;52.388;13.390;2023-02-10T04:39:48;-0.87;85.82
57709;SHT35;42558;52.388;13.390;2023-02-10T04:42:18;-0.81;85.73
57709;SHT35;42558;52.388;13.390;2023-02-10T04:44:48;-0.74;85.69
57709;SHT35;42558;52.388;13.390;2023-02-10T04:47:18;-0.69;85.61
57709;SHT35;42558;52.388;13.390;2023-02-10T04:49:46;-0.65;85.47
57709;SHT35;42558;52.388;13.390;2023-02-10T04:52:15;-0.58;85.44
57709;SHT35;42558;52.388;13.390;2023-02-10T04:54:43;-0.58;85.18
57709;SHT35;42558;52.388;13.390;2023-02-10T04:57:11;-0.56;85.27
57709;SHT35;42558;52.388;13.390;2023-02-10T04:59:40;-0.49;85.37
57709;SHT35;42558;52.388;13.390;2023-02-10T05:02:08;-0.48;85.27
57709;SHT35;42558;52.388;13.390;2023-02-10T05:04:37;-0.43;85.34
57709;SHT35;42558;52.388;13.390;2023-02-10T05:07:04;-0.41;85.33
57709;SHT35;42558;52.388;13.390;2023-02-10T05:09:33;-0.36;85.48
57709;SHT35;42558;52.388;13.390;2023-02-10T05:12:01;-0.34;85.33
57709;SHT35;42558;52.388;13.390;2023-02-10T05:14:30;-0.32;85.42
57709;SHT35;42558;52.388;13.390;2023-02-10T05:16:58;-0.25;85.53
57709;SHT35;42558;52.388;13.390;2023-02-10T05:19:26;-0.23;85.37
57709;SHT35;42558;52.388;13.390;2023-02-10T05:21:55;-0.22;85.38
57709;SHT35;42558;52.388;13.390;2023-02-10T05:24:23;-0.15;85.48
57709;SHT35;42558;52.388;13.390;2023-02-10T05:26:52;-0.10;85.30
57709;SHT35;42558;52.388;13.390;2023-02-10T05:29:20;-0.08;85.14
57709;SHT35;42558;52.388;13.390;2023-02-10T05:31:48;-0.11;85.05
57709;SHT35;42558;52.388;13.390;2023-02-10T05:34:17;-0.14;85.04
57709;SHT35;42558;52.388;13.390;2023-02-10T05:36:45;-0.15;85.12
57709;SHT35;42558;52.388;13.390;2023-02-10T05:39:14;-0.15;85.20
57709;SHT35;42558;52.388;13.390;2023-02-10T05:41:53;-0.12;85.25
57709;SHT35;42558;52.388;13.390;2023-02-10T05:44:25;-0.14;85.10
57709;SHT35;42558;52.388;13.390;2023-02-10T05:46:55;-0.17;85.02
57709;SHT35;42558;52.388;13.390;2023-02-10T05:49:25;-0.19;85.10
57709;SHT35;42558;52.388;13.390;2023-02-10T05:51:54;-0.21;85.17
57709;SHT35;42558;52.388;13.390;2023-02-10T05:54:22;-0.25;85.08
57709;SHT35;42558;52.388;13.390;2023-02-10T05:56:51;-0.26;85.16
57709;SHT35;42558;52.388;13.390;2023-02-10T05:59:21;-0.27;85.20
57709;SHT35;42558;52.388;13.390;2023-02-10T06:01:49;-0.28;85.24
57709;SHT35;42558;52.388;13.390;2023-02-10T06:04:18;-0.23;85.49
57709;SHT35;42558;52.388;13.390;2023-02-10T06:06:46;-0.22;85.38
57709;SHT35;42558;52.388;13.390;2023-02-10T06:09:14;-0.21;85.40
57709;SHT35;42558;52.388;13.390;2023-02-10T06:11:43;-0.19;85.52
57709;SHT35;42558;52.388;13.390;2023-02-10T06:14:11;-0.21;85.49
57709;SHT35;42558;52.388;13.390;2023-02-10T06:16:40;-0.20;85.50
57709;SHT35;42558;52.388;13.390;2023-02-10T06:19:08;-0.21;85.47
57709;SHT35;42558;52.388;13.390;2023-02-10T06:21:38;-0.19;85.59
57709;SHT35;42558;52.388;13.390;2023-02-10T06:24:06;-0.18;85.57
57709;SHT35;42558;52.388;13.390;2023-02-10T06:26:35;-0.20;85.44
57709;SHT35;42558;52.388;13.390;2023-02-10T06:29:03;-0.25;85.34
57709;SHT35;42558;52.388;13.390;2023-02-10T06:31:32;-0.29;85.33
57709;SHT35;42558;52.388;13.390;2023-02-10T06:34:00;-0.31;85.41
57709;SHT35;42558;52.388;13.390;2023-02-10T06:36:29;-0.33;85.53
57709;SHT35;42558;52.388;13.390;2023-02-10T06:38:57;-0.37;85.50
57709;SHT35;42558;52.388;13.390;2023-02-10T06:41:25;-0.40;85.62
57709;SHT35;42558;52.388;13.390;2023-02-10T06:43:54;-0.42;85.67
57709;SHT35;42558;52.388;13.390;2023-02-10T06:46:23;-0.45;85.70
57709;SHT35;42558;52.388;13.390;2023-02-10T06:48:51;-0.48;85.79
57709;SHT35;42558;52.388;13.390;2023-02-10T06:51:19;-0.48;86.02
57709;SHT35;42558;52.388;13.390;2023-02-10T06:53:48;-0.51;85.98
57709;SHT35;42558;52.388;13.390;2023-02-10T06:56:16;-0.52;86.12
57709;SHT35;42558;52.388;13.390;2023-02-10T06:58:45;-0.52;86.31
57709;SHT35;42558;52.388;13.390;2023-02-10T07:01:15;-0.52;86.29
57709;SHT35;42558;52.388;13.390;2023-02-10T07:03:44;-0.50;86.40
57709;SHT35;42558;52.388;13.390;2023-02-10T07:06:13;-0.50;86.36
57709;SHT35;42558;52.388;13.390;2023-02-10T07:08:41;-0.44;86.66
57709;SHT35;42558;52.388;13.390;2023-02-10T07:11:10;-0.41;86.60
57709;SHT35;42558;52.388;13.390;2023-02-10T07:13:38;-0.40;86.49
57709;SHT35;42558;52.388;13.390;2023-02-10T07:16:07;-0.35;86.57
57709;SHT35;42558;52.388;13.390;2023-02-10T07:18:35;-0.33;86.52
57709;SHT35;42558;52.388;13.390;2023-02-10T07:21:03;-0.28;86.52
57709;SHT35;42558;52.388;13.390;2023-02-10T07:23:32;-0.20;86.47
57709;SHT35;42558;52.388;13.390;2023-02-10T07:26:05;-0.12;86.40
57709;SHT35;42558;52.388;13.390;2023-02-10T07:28:36;-0.05;86.20
57709;SHT35;42558;52.388;13.390;2023-02-10T07:31:04;-0.02;86.07
57709;SHT35;42558;52.388;13.390;2023-02-10T07:33:33;0.06;86.08
57709;SHT35;42558;52.388;13.390;2023-02-10T07:36:01;0.14;85.88
57709;SHT35;42558;52.388;13.390;2023-02-10T07:38:30;0.25;85.82
57709;SHT35;42558;52.388;13.390;2023-02-10T07:40:58;0.36;85.62
57709;SHT35;42558;52.388;13.390;2023-02-10T07:43:26;0.44;85.32
57709;SHT35;42558;52.388;13.390;2023-02-10T07:45:55;0.55;85.19
57709;SHT35;42558;52.388;13.390;2023-02-10T07:48:23;0.65;85.03
57709;SHT35;42558;52.388;13.390;2023-02-10T07:50:52;0.79;84.79
57709;SHT35;42558;52.388;13.390;2023-02-10T07:53:20;0.90;84.49
57709;SHT35;42558;52.388;13.390;2023-02-10T07:55:49;0.95;84.11
57709;SHT35;42558;52.388;13.390;2023-02-10T07:58:17;1.01;84.00
57709;SHT35;42558;52.388;13.390;2023-02-10T08:00:45;1.04;83.87
57709;SHT35;42558;52.388;13.390;2023-02-10T08:03:14;1.09;83.78
57709;SHT35;42558;52.388;13.390;2023-02-10T08:05:42;1.18;83.62
57709;SHT35;42558;52.388;13.390;2023-02-10T08:08:11;1.28;83.41
57709;SHT35;42558;52.388;13.390;2023-02-10T08:10:42;1.35;83.12
57709;SHT35;42558;52.388;13.390;2023-02-10T08:13:10;1.49;83.03
57709;SHT35;42558;52.388;13.390;2023-02-10T08:15:39;1.51;82.66
57709;SHT35;42558;52.388;13.390;2023-02-10T08:18:07;1.59;82.69
57709;SHT35;42558;52.388;13.390;2023-02-10T08:20:36;1.70;82.59
57709;SHT35;42558;52.388;13.390;2023-02-10T08:23:04;1.81;82.24
57709;SHT35;42558;52.388;13.390;2023-02-10T08:25:32;1.95;81.94
57709;SHT35;42558;52.388;13.390;2023-02-10T08:28:01;1.99;81.72
57709;SHT35;42558;52.388;13.390;2023-02-10T08:30:29;2.13;81.59
57709;SHT35;42558;52.388;13.390;2023-02-10T08:32:58;2.30;81.37
57709;SHT35;42558;52.388;13.390;2023-02-10T08:35:26;2.42;80.74
57709;SHT35;42558;52.388;13.390;2023-02-10T08:37:55;2.49;80.36
57709;SHT35;42558;52.388;13.390;2023-02-10T08:40:23;2.64;80.11
57709;SHT35;42558;52.388;13.390;2023-02-10T08:42:51;2.66;79.65
57709;SHT35;42558;52.388;13.390;2023-02-10T08:45:20;2.70;79.58
57709;SHT35;42558;52.388;13.390;2023-02-10T08:47:48;2.59;79.84
57709;SHT35;42558;52.388;13.390;2023-02-10T08:50:17;2.71;79.97
57709;SHT35;42558;52.388;13.390;2023-02-10T08:52:45;2.76;79.69
57709;SHT35;42558;52.388;13.390;2023-02-10T08:55:13;2.90;79.55
57709;SHT35;42558;52.388;13.390;2023-02-10T08:57:42;2.98;79.15
57709;SHT35;42558;52.388;13.390;2023-02-10T09:00:10;2.92;79.03
57709;SHT35;42558;52.388;13.390;2023-02-10T09:02:39;2.87;79.34
57709;SHT35;42558;52.388;13.390;2023-02-10T09:05:07;3.01;79.15
57709;SHT35;42558;52.388;13.390;2023-02-10T09:07:39;3.78;78.45
57709;SHT35;42558;52.388;13.390;2023-02-10T09:10:09;5.82;72.38
57709;SHT35;42558;52.388;13.390;2023-02-10T09:12:41;5.80;69.19
57709;SHT35;42558;52.388;13.390;2023-02-10T09:15:12;6.43;68.58
57709;SHT35;42558;52.388;13.390;2023-02-10T09:17:42;6.67;66.52
57709;SHT35;42558;52.388;13.390;2023-02-10T09:20:12;7.45;65.74
57709;SHT35;42558;52.388;13.390;2023-02-10T09:22:41;7.76;63.07
57709;SHT35;42558;52.388;13.390;2023-02-10T09:25:12;7.18;64.85
57709;SHT35;42558;52.388;13.390;2023-02-10T09:27:41;6.40;67.09
57709;SHT35;42558;52.388;13.390;2023-02-10T09:30:11;6.56;67.57
57709;SHT35;42558;52.388;13.390;2023-02-10T09:32:41;5.64;69.92
57709;SHT35;42558;52.388;13.390;2023-02-10T09:35:11;5.51;71.00
57709;SHT35;42558;52.388;13.390;2023-02-10T09:37:41;5.23;71.45
57709;SHT35;42558;52.388;13.390;2023-02-10T09:40:14;4.92;72.88
57709;SHT35;42558;52.388;13.390;2023-02-10T09:43:06;4.48;74.30
57709;SHT35;42558;52.388;13.390;2023-02-10T09:46:00;4.21;75.82
57709;SHT35;42558;52.388;13.390;2023-02-10T09:54:21;4.38;75.93
57709;SHT35;42558;52.388;13.390;2023-02-10T09:56:51;4.40;75.82
57709;SHT35;42558;52.388;13.390;2023-02-10T09:59:21;4.42;76.15
57709;SHT35;42558;52.388;13.390;2023-02-10T10:01:54;4.64;75.44
57709;SHT35;42558;52.388;13.390;2023-02-10T10:04:33;5.05;74.32
57709;SHT35;42558;52.388;13.390;2023-02-10T10:07:07;5.31;73.01
57709;SHT35;42558;52.388;13.390;2023-02-10T10:10:34;5.15;73.60
57709;SHT35;42558;52.388;13.390;2023-02-10T10:13:10;5.10;73.74
57709;SHT35;42558;52.388;13.390;2023-02-10T10:19:38;4.79;74.79
57709;SHT35;42558;52.388;13.390;2023-02-10T10:28:12;4.33;76.85
57709;SHT35;42558;52.388;13.390;2023-02-10T10:31:02;4.51;76.35
57709;SHT35;42558;52.388;13.390;2023-02-10T10:33:58;4.90;75.38
57709;SHT35;42558;52.388;13.390;2023-02-10T10:36:43;4.93;75.10
57709;SHT35;42558;52.388;13.390;2023-02-10T10:39:28;5.10;74.67
57709;SHT35;42558;52.388;13.390;2023-02-10T10:42:07;4.85;75.19
57709;SHT35;42558;52.388;13.390;2023-02-10T10:45:50;4.61;76.21
57709;SHT35;42558;52.388;13.390;2023-02-10T10:48:23;4.58;76.33
57709;SHT35;42558;52.388;13.390;2023-02-10T10:51:01;4.47;76.81
57709;SHT35;42558;52.388;13.390;2023-02-10T10:53:39;4.47;76.84
57709;SHT35;42558;52.388;13.390;2023-02-10T10:59:38;4.47;76.87
57709;SHT35;42558;52.388;13.390;2023-02-10T11:02:16;4.53;76.88
57709;SHT35;42558;52.388;13.390;2023-02-10T11:05:04;4.48;77.04
57709;SHT35;42558;52.388;13.390;2023-02-10T11:07:40;4.52;77.10
57709;SHT35;42558;52.388;13.390;2023-02-10T11:11:14;4.55;77.02
57709;SHT35;42558;52.388;13.390;2023-02-10T11:13:21;4.63;76.99
57709;SHT35;42558;52.388;13.390;2023-02-10T11:15:58;4.74;76.93
57709;SHT35;42558;52.388;13.390;2023-02-10T11:18:52;4.83;76.39
57709;SHT35;42558;52.388;13.390;2023-02-10T11:21:33;4.74;76.31
57709;SHT35;42558;52.388;13.390;2023-02-10T11:27:04;5.21;75.30
57709;SHT35;42558;52.388;13.390;2023-02-10T11:29:49;5.65;74.25
57709;SHT35;42558;52.388;13.390;2023-02-10T11:32:26;5.99;73.17
57709;SHT35;42558;52.388;13.390;2023-02-10T11:35:02;5.97;72.53
57709;SHT35;42558;52.388;13.390;2023-02-10T11:37:43;5.92;72.61
57709;SHT35;42558;52.388;13.390;2023-02-10T11:40:27;6.09;72.23
57709;SHT35;42558;52.388;13.390;2023-02-10T11:43:32;6.09;71.97
57709;SHT35;42558;52.388;13.390;2023-02-10T11:46:06;6.17;71.92
57709;SHT35;42558;52.388;13.390;2023-02-10T11:48:58;6.23;71.93
57709;SHT35;42558;52.388;13.390;2023-02-10T11:51:31;6.15;72.21
57709;SHT35;42558;52.388;13.390;2023-02-10T11:54:01;6.16;72.36
57709;SHT35;42558;52.388;13.390;2023-02-10T11:59:30;6.33;71.18
57709;SHT35;42558;52.388;13.390;2023-02-10T12:04:53;6.26;71.50
57709;SHT35;42558;52.388;13.390;2023-02-10T12:11:01;6.18;71.71
57709;SHT35;42558;52.388;13.390;2023-02-10T12:19:48;6.07;72.24
57709;SHT35;42558;52.388;13.390;2023-02-10T12:34:47;6.54;71.13
57709;SHT35;42558;52.388;13.390;2023-02-10T12:40:58;6.32;71.70
57709;SHT35;42558;52.388;13.390;2023-02-10T12:49:56;5.99;72.29
57709;SHT35;42558;52.388;13.390;2023-02-10T12:52:55;5.94;72.49
57709;SHT35;42558;52.388;13.390;2023-02-10T12:58:36;5.94;72.45
57709;SHT35;42558;52.388;13.390;2023-02-10T13:01:35;6.17;72.01
57709;SHT35;42558;52.388;13.390;2023-02-10T13:04:22;6.32;71.55
57709;SHT35;42558;52.388;13.390;2023-02-10T13:07:00;6.38;71.55
57709;SHT35;42558;52.388;13.390;2023-02-10T13:09:43;6.43;71.31
57709;SHT35;42558;52.388;13.390;2023-02-10T13:12:25;6.36;71.26
57709;SHT35;42558;52.388;13.390;2023-02-10T13:17:48;6.17;71.72
57709;SHT35;42558;52.388;13.390;2023-02-10T13:24:03;6.20;72.38
57709;SHT35;42558;52.388;13.390;2023-02-10T13:26:31;6.18;72.42
57709;SHT35;42558;52.388;13.390;2023-02-10T13:35:13;6.10;72.51
57709;SHT35;42558;52.388;13.390;2023-02-10T13:37:48;5.95;72.86
57709;SHT35;42558;52.388;13.390;2023-02-10T13:40:25;5.97;72.90
57709;SHT35;42558;52.388;13.390;2023-02-10T13:43:04;6.01;72.84
57709;SHT35;42558;52.388;13.390;2023-02-10T13:45:36;6.06;73.01
57709;SHT35;42558;52.388;13.390;2023-02-10T13:48:18;6.14;72.79
57709;SHT35;42558;52.388;13.390;2023-02-10T13:51:06;6.10;72.82
57709;SHT35;42558;52.388;13.390;2023-02-10T13:53:38;6.00;72.80
57709;SHT35;42558;52.388;13.390;2023-02-10T14:06:49;5.87;73.43
57709;SHT35;42558;52.388;13.390;2023-02-10T14:11:58;5.91;73.64
57709;SHT35;42558;52.388;13.390;2023-02-10T14:14:32;5.99;73.21
57709;SHT35;42558;52.388;13.390;2023-02-10T14:19:43;5.84;73.46
57709;SHT35;42558;52.388;13.390;2023-02-10T14:25:25;5.91;72.87
57709;SHT35;42558;52.388;13.390;2023-02-10T14:28:17;5.96;72.78
57709;SHT35;42558;52.388;13.390;2023-02-10T14:30:54;5.86;72.34
57709;SHT35;42558;52.388;13.390;2023-02-10T14:33:30;6.09;71.75
57709;SHT35;42558;52.388;13.390;2023-02-10T14:36:04;6.13;71.19
57709;SHT35;42558;52.388;13.390;2023-02-10T14:38:44;6.00;71.60
57709;SHT35;42558;52.388;13.390;2023-02-10T14:41:24;6.00;71.53
57709;SHT35;42558;52.388;13.390;2023-02-10T14:44:01;5.93;71.72
57709;SHT35;42558;52.388;13.390;2023-02-10T14:46:31;5.92;71.72
57709;SHT35;42558;52.388;13.390;2023-02-10T14:49:03;5.71;72.12
57709;SHT35;42558;52.388;13.390;2023-02-10T14:51:40;5.56;72.76
57709;SHT35;42558;52.388;13.390;2023-02-10T14:54:22;5.43;73.04
57709;SHT35;42558;52.388;13.390;2023-02-10T14:56:58;5.42;73.50
57709;SHT35;42558;52.388;13.390;2023-02-10T14:59:31;5.38;73.43
57709;SHT35;42558;52.388;13.390;2023-02-10T15:02:10;5.28;73.78
57709;SHT35;42558;52.388;13.390;2023-02-10T15:04:48;5.17;74.16
57709;SHT35;42558;52.388;13.390;2023-02-10T15:07:30;5.12;74.48
57709;SHT35;42558;52.388;13.390;2023-02-10T15:13:08;5.13;74.57
57709;SHT35;42558;52.388;13.390;2023-02-10T15:15:41;5.08;74.70
57709;SHT35;42558;52.388;13.390;2023-02-10T15:18:21;5.01;74.95
57709;SHT35;42558;52.388;13.390;2023-02-10T15:21:04;5.01;75.01
57709;SHT35;42558;52.388;13.390;2023-02-10T15:23:52;4.95;75.07
57709;SHT35;42558;52.388;13.390;2023-02-10T15:26:26;4.80;75.41
57709;SHT35;42558;52.388;13.390;2023-02-10T15:29:08;4.74;75.61
57709;SHT35;42558;52.388;13.390;2023-02-10T15:31:42;4.68;75.55
57709;SHT35;42558;52.388;13.390;2023-02-10T15:34:26;4.60;75.81
57709;SHT35;42558;52.388;13.390;2023-02-10T15:36:59;4.52;75.97
57709;SHT35;42558;52.388;13.390;2023-02-10T15:39:35;4.41;76.14
57709;SHT35;42558;52.388;13.390;2023-02-10T15:42:20;4.35;76.42
57709;SHT35;42558;52.388;13.390;2023-02-10T15:45:14;4.28;76.77
57709;SHT35;42558;52.388;13.390;2023-02-10T15:48:07;4.23;76.88
57709;SHT35;42558;52.388;13.390;2023-02-10T15:50:36;4.13;77.16
57709;SHT35;42558;52.388;13.390;2023-02-10T15:53:18;4.04;77.42
57709;SHT35;42558;52.388;13.390;2023-02-10T15:55:49;4.00;77.70
57709;SHT35;42558;52.388;13.390;2023-02-10T15:58:19;3.95;77.97
57709;SHT35;42558;52.388;13.390;2023-02-10T16:00:49;3.90;77.96
57709;SHT35;42558;52.388;13.390;2023-02-10T16:03:16;3.85;78.29
57709;SHT35;42558;52.388;13.390;2023-02-10T16:05:43;3.81;78.53
57709;SHT35;42558;52.388;13.390;2023-02-10T16:08:20;3.80;78.56
57709;SHT35;42558;52.388;13.390;2023-02-10T16:10:48;3.78;78.75
57709;SHT35;42558;52.388;13.390;2023-02-10T16:13:19;3.73;78.76
57709;SHT35;42558;52.388;13.390;2023-02-10T16:15:49;3.67;79.02
57709;SHT35;42558;52.388;13.390;2023-02-10T16:18:21;3.61;79.22
57709;SHT35;42558;52.388;13.390;2023-02-10T16:20:53;3.64;79.41
57709;SHT35;42558;52.388;13.390;2023-02-10T16:23:23;3.62;79.25
57709;SHT35;42558;52.388;13.390;2023-02-10T16:25:52;3.56;79.38
57709;SHT35;42558;52.388;13.390;2023-02-10T16:28:23;3.52;79.76
57709;SHT35;42558;52.388;13.390;2023-02-10T16:30:53;3.49;79.71
57709;SHT35;42558;52.388;13.390;2023-02-10T16:33:23;3.41;79.80
57709;SHT35;42558;52.388;13.390;2023-02-10T16:35:52;3.33;80.12
57709;SHT35;42558;52.388;13.390;2023-02-10T16:38:21;3.32;80.49
57709;SHT35;42558;52.388;13.390;2023-02-10T16:40:50;3.26;80.35
57709;SHT35;42558;52.388;13.390;2023-02-10T16:43:18;3.22;80.47
57709;SHT35;42558;52.388;13.390;2023-02-10T16:45:46;3.20;80.71
57709;SHT35;42558;52.388;13.390;2023-02-10T16:48:15;3.17;80.92
57709;SHT35;42558;52.388;13.390;2023-02-10T16:50:43;3.22;80.93
57709;SHT35;42558;52.388;13.390;2023-02-10T16:53:12;3.15;80.74
57709;SHT35;42558;52.388;13.390;2023-02-10T16:55:40;3.11;80.76
57709;SHT35;42558;52.388;13.390;2023-02-10T16:58:13;3.04;80.91
57709;SHT35;42558;52.388;13.390;2023-02-10T17:00:43;2.99;81.21
57709;SHT35;42558;52.388;13.390;2023-02-10T17:03:12;2.95;81.42
57709;SHT35;42558;52.388;13.390;2023-02-10T17:05:40;2.92;81.63
57709;SHT35;42558;52.388;13.390;2023-02-10T17:08:09;2.90;81.93
57709;SHT35;42558;52.388;13.390;2023-02-10T17:10:40;2.93;82.01
57709;SHT35;42558;52.388;13.390;2023-02-10T17:13:08;2.91;81.87
57709;SHT35;42558;52.388;13.390;2023-02-10T17:15:37;2.89;82.16
57709;SHT35;42558;52.388;13.390;2023-02-10T17:18:05;2.89;82.20
57709;SHT35;42558;52.388;13.390;2023-02-10T17:20:34;2.89;82.26
57709;SHT35;42558;52.388;13.390;2023-02-10T17:23:02;2.84;82.18
57709;SHT35;42558;52.388;13.390;2023-02-10T17:25:30;2.82;82.57
57709;SHT35;42558;52.388;13.390;2023-02-10T17:28:02;2.78;82.50
57709;SHT35;42558;52.388;13.390;2023-02-10T17:30:33;2.79;82.90
57709;SHT35;42558;52.388;13.390;2023-02-10T17:33:14;2.79;82.84
57709;SHT35;42558;52.388;13.390;2023-02-10T17:35:54;2.80;82.94
57709;SHT35;42558;52.388;13.390;2023-02-10T17:38:24;2.74;82.82
57709;SHT35;42558;52.388;13.390;2023-02-10T17:41:33;2.71;82.99
57709;SHT35;42558;52.388;13.390;2023-02-10T17:44:03;2.72;83.15
57709;SHT35;42558;52.388;13.390;2023-02-10T17:46:33;2.69;83.07
57709;SHT35;42558;52.388;13.390;2023-02-10T17:49:03;2.64;83.25
57709;SHT35;42558;52.388;13.390;2023-02-10T17:51:34;2.60;83.29
57709;SHT35;42558;52.388;13.390;2023-02-10T17:54:03;2.65;83.44
57709;SHT35;42558;52.388;13.390;2023-02-10T17:56:31;2.67;83.26
57709;SHT35;42558;52.388;13.390;2023-02-10T17:59:03;2.71;83.17
57709;SHT35;42558;52.388;13.390;2023-02-10T18:01:33;2.72;83.21
57709;SHT35;42558;52.388;13.390;2023-02-10T18:04:04;2.70;83.17
57709;SHT35;42558;52.388;13.390;2023-02-10T18:06:35;2.72;83.23
57709;SHT35;42558;52.388;13.390;2023-02-10T18:09:04;2.71;83.20
57709;SHT35;42558;52.388;13.390;2023-02-10T18:11:34;2.73;83.27
57709;SHT35;42558;52.388;13.390;2023-02-10T18:14:04;2.81;83.30